createdAt,value
2023-11-29T00:01:00.694Z,99.96
2023-11-29T00:11:03.540Z,99.44
2023-11-29T00:21:08.643Z,98.32
2023-11-29T00:31:11.494Z,99.29
2023-11-29T00:41:15.679Z,98.28
2023-11-29T00:51:18.452Z,97.91
2023-11-29T01:01:22.655Z,97.37
2023-11-29T01:11:26.113Z,96.68
2023-11-29T01:21:35.465Z,97.39
2023-11-29T01:31:38.651Z,97.90
2023-11-29T01:41:42.945Z,97.55
2023-11-29T01:51:46.006Z,98.03
2023-11-29T02:01:50.249Z,98.98
2023-11-29T02:11:55.290Z,99.29
2023-11-29T02:21:59.430Z,99.18
2023-11-29T02:32:03.882Z,98.47
2023-11-29T02:42:07.220Z,99.16
2023-11-29T02:52:11.390Z,98.39
2023-11-29T03:02:14.781Z,98.90
2023-11-29T03:12:18.975Z,97.83
2023-11-29T03:22:21.740Z,98.60
2023-11-29T03:32:27.507Z,98.33
2023-11-29T03:42:30.575Z,99.18
2023-11-29T03:52:34.700Z,98.92
2023-11-29T04:02:37.664Z,100.00
2023-11-29T04:12:42.986Z,100.00
2023-11-29T04:22:48.833Z,100.00
2023-11-29T04:32:53.032Z,100.00
2023-11-29T04:42:55.880Z,100.00
2023-11-29T04:53:00.693Z,100.00
2023-11-29T05:03:03.568Z,100.00
2023-11-29T05:13:08.112Z,100.00
2023-11-29T05:23:10.896Z,100.00
2023-11-29T05:33:15.291Z,100.00
2023-11-29T05:43:18.179Z,100.00
2023-11-29T05:53:24.440Z,100.00
2023-11-29T06:03:27.953Z,100.00
2023-11-29T06:13:32.084Z,100.00
2023-11-29T06:23:34.853Z,100.00
2023-11-29T06:33:39.026Z,100.00
2023-11-29T06:43:41.837Z,100.00
2023-11-29T06:53:46.370Z,100.00
2023-11-29T07:03:50.044Z,100.00
2023-11-29T07:13:54.165Z,100.00
2023-11-29T07:23:58.761Z,100.00
2023-11-29T07:34:03.130Z,100.00
2023-11-29T07:44:06.868Z,100.00
2023-11-29T07:54:11.087Z,100.00
2023-11-29T08:04:13.762Z,100.00
2023-11-29T08:14:18.307Z,100.00
2023-11-29T08:24:21.245Z,100.00
2023-11-29T08:34:25.381Z,100.00
2023-11-29T08:44:27.934Z,100.00
2023-11-29T08:54:32.338Z,100.00
2023-11-29T09:04:35.254Z,100.00
2023-11-29T09:14:39.817Z,100.00
2023-11-29T09:24:42.655Z,100.00
2023-11-29T09:34:47.216Z,100.00
2023-11-29T09:44:50.864Z,100.00
2023-11-29T09:54:55.167Z,94.97
2023-11-29T10:04:58.105Z,91.39
2023-11-29T10:15:07.755Z,90.23
2023-11-29T10:25:20.591Z,81.18
2023-11-29T10:35:25.984Z,88.91
2023-11-29T10:45:29.230Z,90.73
2023-11-29T10:55:38.015Z,92.22
2023-11-29T11:05:41.146Z,92.46
2023-11-29T11:15:45.484Z,93.10
2023-11-29T11:25:48.250Z,91.79
2023-11-29T11:35:52.447Z,92.60
2023-11-29T11:45:55.429Z,92.15
2023-11-29T11:55:59.669Z,91.25
2023-11-29T12:06:05.677Z,90.99
2023-11-29T12:16:16.191Z,93.36
2023-11-29T12:26:19.091Z,98.42
2023-11-29T12:36:23.479Z,100.00
2023-11-29T12:46:26.501Z,99.47
2023-11-29T12:56:30.679Z,97.15
2023-11-29T13:06:33.665Z,96.51
2023-11-29T13:16:38.146Z,99.27
2023-11-29T13:26:41.149Z,100.00
2023-11-29T13:36:45.256Z,100.00
2023-11-29T13:46:47.966Z,100.00
2023-11-29T13:56:52.363Z,100.00
2023-11-29T14:06:55.900Z,100.00
2023-11-29T14:17:00.448Z,100.00
2023-11-29T14:27:03.891Z,96.75
2023-11-29T14:37:08.257Z,95.23
2023-11-29T14:47:11.306Z,97.32
2023-11-29T14:57:15.567Z,96.40
2023-11-29T15:07:18.725Z,95.78
2023-11-29T15:17:23.074Z,96.31
2023-11-29T15:27:26.346Z,97.21
2023-11-29T15:37:30.643Z,97.60
2023-11-29T15:47:33.807Z,98.93
2023-11-29T15:57:38.141Z,98.95
2023-11-29T16:07:41.476Z,99.29
2023-11-29T16:17:45.724Z,100.00
2023-11-29T16:27:48.813Z,100.00
2023-11-29T16:37:53.521Z,100.00
2023-11-29T16:47:56.451Z,100.00
2023-11-29T16:58:00.704Z,100.00
2023-11-29T17:08:03.479Z,100.00
2023-11-29T17:18:08.374Z,100.00
2023-11-29T17:28:11.197Z,100.00
2023-11-29T17:38:17.629Z,100.00
2023-11-29T17:48:20.628Z,100.00
2023-11-29T17:58:26.111Z,100.00
2023-11-29T18:08:29.327Z,100.00
2023-11-29T18:18:34.877Z,100.00
2023-11-29T18:28:37.887Z,100.00
2023-11-29T18:38:42.424Z,100.00
2023-11-29T18:48:45.729Z,100.00
2023-11-29T18:58:50.423Z,100.00
2023-11-29T19:08:53.641Z,100.00
2023-11-29T19:18:59.845Z,100.00
2023-11-29T19:29:04.425Z,100.00
2023-11-29T19:39:09.081Z,100.00
2023-11-29T19:49:11.916Z,100.00
2023-11-29T19:59:16.068Z,100.00
2023-11-29T20:09:22.342Z,100.00
2023-11-29T20:19:27.660Z,100.00
2023-11-29T20:29:30.624Z,100.00
2023-11-29T20:39:34.601Z,100.00
2023-11-29T20:49:37.613Z,100.00
2023-11-29T20:59:41.863Z,100.00
2023-11-29T21:09:44.866Z,100.00
2023-11-29T21:19:49.894Z,100.00
2023-11-29T21:29:52.817Z,100.00
2023-11-29T21:39:57.689Z,100.00
2023-11-29T21:50:00.605Z,100.00
2023-11-29T22:00:05.772Z,100.00
2023-11-29T22:10:09.379Z,100.00
2023-11-29T22:20:14.015Z,100.00
2023-11-29T22:30:17.916Z,100.00
2023-11-29T22:40:22.641Z,100.00
2023-11-29T22:50:25.873Z,100.00
2023-11-29T23:00:30.069Z,100.00
2023-11-29T23:10:32.920Z,100.00
2023-11-29T23:20:37.075Z,100.00
2023-11-29T23:30:39.950Z,100.00
2023-11-29T23:40:44.138Z,100.00
2023-11-29T23:50:46.948Z,100.00
